Terminal Aerodrome Forecast
Issued by NWS

Home | Current Version | Previous Version | Graphics & Text | Print | Product List | Glossary On
Versions: 1 2 3 4 5 6 7 8 9 10 11 12 13 14 15 16 17 18 19 20
407
FTUS43 KABR 272340
TAFPIR
TAF
KPIR 272340Z 2800/2824 04015KT P6SM -SHRA OVC007
     FM280400 02014KT P6SM -SHRA OVC003
     FM280600 02010KT P6SM VCSH OVC004
     FM281500 01014KT P6SM OVC010=

USA.gov is the U.S. government's official web portal to all federal, state and local government web resources and services.